Welcome to the New NWS' Forecast!
Most changes are behind the scenes, but click here for differences you might notice.

Terminal Aerodrome Forecast (TAF)

Issued by National Weather Service (NWS)

                            
516 
FTUS42 KMFL 151459 AAA
TAFMIA
TAF AMD
KMIA 151459Z 1515/1618 11010KT P6SM SCT030 BKN250
     FM151800 11015KT P6SM SCT030 BKN050
     FM160100 10006KT P6SM FEW040 SCT250
     FM161400 12010KT P6SM SCT035=